Time;durP1;ratioP1;P1;durP2;ratioP2;P2;SDS_P1;SDS_P2;PMS_P1;PMS_P2;Temp;Humidity;BMP_temperature;BMP_pressure;BME280_temperature;BME280_humidity;BME280_pressure;Samples;Min_cycle;Max_cycle;Signal;HPM_P1;HPM_P2
2022/12/15 00:39:12;;;;;;;251.20;124.35;;;5.00;99.90;;;;;;5074588;28;20063;-76
2022/12/15 00:41:38;;;;;;;294.77;141.60;;;5.00;99.90;;;;;;5074241;28;20044;-77
2022/12/15 00:44:04;;;;;;;312.55;154.93;;;4.90;99.90;;;;;;5074162;28;20099;-77
2022/12/15 01:22:06;;;;;;;363.77;169.93;;;4.80;99.90;;;;;;5073766;28;20035;-77
2022/12/15 01:24:31;;;;;;;412.67;181.45;;;4.80;99.90;;;;;;5072437;28;20035;-77
2022/12/15 01:26:57;;;;;;;342.27;171.60;;;4.80;99.90;;;;;;5073827;28;20100;-76
2022/12/15 01:29:24;;;;;;;363.17;177.40;;;4.80;99.90;;;;;;5074125;28;20020;-76
2022/12/15 01:31:50;;;;;;;388.50;191.43;;;4.80;99.90;;;;;;5073681;28;20016;-77
2022/12/15 01:34:17;;;;;;;373.80;185.63;;;4.80;99.90;;;;;;5073909;28;20020;-76
2022/12/15 01:36:42;;;;;;;247.23;118.78;;;4.80;99.90;;;;;;5066833;28;20071;-76
2022/12/15 01:39:08;;;;;;;240.38;113.22;;;4.90;99.90;;;;;;5072457;28;20074;-77
2022/12/15 01:41:34;;;;;;;180.15;83.97;;;4.90;99.90;;;;;;5072262;28;20409;-77
2022/12/15 01:44:21;;;;;;;165.43;80.30;;;4.90;99.90;;;;;;5073572;28;20027;-76
2022/12/15 01:46:49;;;;;;;272.70;135.85;;;4.90;99.90;;;;;;5073552;28;20028;-77
2022/12/15 01:49:21;;;;;;;327.75;166.70;;;4.90;99.90;;;;;;5073187;28;20475;-76
2022/12/15 01:51:51;;;;;;;312.65;150.98;;;4.90;99.90;;;;;;5073754;28;20037;-76
2022/12/15 01:54:58;;;;;;;284.27;141.90;;;4.90;99.90;;;;;;5067460;28;20042;-76
2022/12/15 01:57:30;;;;;;;252.80;125.90;;;4.90;99.90;;;;;;5025213;28;20041;-77
2022/12/15 02:00:00;;;;;;;247.02;122.00;;;4.90;99.90;;;;;;5014152;28;20042;-75
2022/12/15 02:02:29;;;;;;;184.45;92.22;;;4.90;99.90;;;;;;5002271;28;20029;-77
2022/12/15 02:04:57;;;;;;;145.25;67.35;;;4.90;99.90;;;;;;5031500;28;20125;-75
2022/12/15 02:07:23;;;;;;;98.57;47.30;;;4.90;99.90;;;;;;5005352;28;20033;-77
2022/12/15 02:09:53;;;;;;;79.57;40.45;;;4.80;99.90;;;;;;5012120;28;20026;-76
2022/12/15 02:12:46;;;;;;;80.63;40.22;;;4.80;99.90;;;;;;5011860;28;20096;-75
2022/12/15 02:15:34;;;;;;;77.53;39.10;;;4.90;99.90;;;;;;4995420;28;20022;-77
2022/12/15 02:18:08;;;;;;;81.70;41.90;;;4.80;99.90;;;;;;5011552;28;20080;-76
2022/12/15 02:20:56;;;;;;;92.03;45.17;;;4.80;99.90;;;;;;5012839;28;20071;-76
2022/12/15 02:23:30;;;;;;;102.00;50.35;;;4.80;99.90;;;;;;5031362;28;20542;-75
2022/12/15 02:26:20;;;;;;;97.45;48.33;;;4.80;99.90;;;;;;5014641;28;20488;-76
2022/12/15 02:28:58;;;;;;;90.20;46.35;;;4.80;99.90;;;;;;5031576;28;20128;-77
2022/12/15 02:31:50;;;;;;;92.07;43.95;;;4.80;99.90;;;;;;5031400;28;20029;-77
2022/12/15 02:34:16;;;;;;;75.13;40.55;;;4.80;99.90;;;;;;5064862;28;20020;-76
2022/12/15 02:36:46;;;;;;;80.47;41.35;;;4.70;99.90;;;;;;5077092;28;20103;-77
2022/12/15 02:39:13;;;;;;;85.05;42.70;;;4.80;99.90;;;;;;5076075;28;20379;-77
2022/12/15 02:41:44;;;;;;;84.47;41.83;;;4.70;99.90;;;;;;5075668;28;20017;-77
2022/12/15 02:44:41;;;;;;;93.47;43.28;;;4.70;99.90;;;;;;5077041;28;20447;-76
2022/12/15 02:47:18;;;;;;;87.68;42.65;;;4.80;99.90;;;;;;5076881;28;20032;-77
2022/12/15 02:50:08;;;;;;;89.55;45.55;;;4.80;99.90;;;;;;5077052;28;20042;-77
2022/12/15 02:52:49;;;;;;;74.72;38.00;;;4.80;99.90;;;;;;5076429;28;20048;-76
2022/12/15 02:55:18;;;;;;;82.88;41.03;;;4.80;99.90;;;;;;5075536;28;20465;-76
2022/12/15 02:58:28;;;;;;;98.47;46.25;;;4.80;99.90;;;;;;5076633;28;20033;-76
2022/12/15 03:01:11;;;;;;;88.05;43.00;;;4.70;99.90;;;;;;5015085;28;20033;-76
2022/12/15 03:03:37;;;;;;;78.93;37.83;;;4.70;99.90;;;;;;5028579;28;20099;-76
2022/12/15 03:06:04;;;;;;;74.22;36.88;;;4.70;99.90;;;;;;5018932;28;20108;-76
2022/12/15 03:08:30;;;;;;;75.65;36.33;;;4.70;99.90;;;;;;5016773;28;20469;-77
2022/12/15 03:10:57;;;;;;;78.93;38.30;;;4.70;99.90;;;;;;5034248;28;20030;-76
2022/12/15 03:13:24;;;;;;;84.50;38.90;;;4.70;99.90;;;;;;5016267;28;20034;-76
2022/12/15 03:15:51;;;;;;;83.40;39.13;;;4.70;99.90;;;;;;4998153;28;20040;-76
2022/12/15 03:18:17;;;;;;;70.93;34.20;;;4.80;99.90;;;;;;5015577;28;20506;-77
2022/12/15 03:20:42;;;;;;;68.15;34.38;;;4.80;99.90;;;;;;5014649;28;20104;-77
2022/12/15 03:23:08;;;;;;;74.78;36.55;;;4.70;99.90;;;;;;5026409;28;20087;-75
2022/12/15 03:25:34;;;;;;;68.60;37.75;;;4.70;99.90;;;;;;5014869;28;20449;-77
2022/12/15 03:28:00;;;;;;;97.72;42.63;;;4.60;99.90;;;;;;5021011;28;20454;-77
2022/12/15 03:30:25;;;;;;;73.93;36.25;;;4.60;99.90;;;;;;5034306;28;20353;-76
2022/12/15 03:32:51;;;;;;;71.20;35.38;;;4.60;99.90;;;;;;5034331;28;20456;-76
2022/12/15 03:35:17;;;;;;;64.90;33.85;;;4.60;99.90;;;;;;5058219;28;20048;-77
2022/12/15 03:37:43;;;;;;;65.03;32.60;;;4.60;99.90;;;;;;5075102;28;20045;-77
2022/12/15 03:40:09;;;;;;;66.20;34.08;;;4.60;99.90;;;;;;5075711;28;20058;-76
2022/12/15 03:42:47;;;;;;;71.75;36.00;;;4.60;99.90;;;;;;5075707;28;20021;-76
2022/12/15 03:45:14;;;;;;;82.18;38.78;;;4.70;99.90;;;;;;5075533;28;20021;-77
2022/12/15 03:47:41;;;;;;;51.47;28.10;;;4.70;99.90;;;;;;5073331;28;20085;-76
2022/12/15 03:50:08;;;;;;;55.88;29.10;;;4.60;99.90;;;;;;5075452;28;20023;-76
2022/12/15 03:52:34;;;;;;;54.30;29.83;;;4.60;99.90;;;;;;5076122;28;20017;-76
2022/12/15 03:55:01;;;;;;;56.33;28.02;;;4.70;99.90;;;;;;5075500;28;20032;-77
2022/12/15 03:57:26;;;;;;;61.10;29.05;;;4.60;99.90;;;;;;5074171;28;20059;-79
2022/12/15 03:59:52;;;;;;;58.55;29.77;;;4.70;99.90;;;;;;5075425;28;20048;-78
2022/12/15 04:02:18;;;;;;;61.30;31.48;;;4.70;99.90;;;;;;5074368;28;20029;-78
2022/12/15 04:04:44;;;;;;;59.00;31.95;;;4.70;99.90;;;;;;5075476;28;20059;-78
2022/12/15 04:07:10;;;;;;;61.38;32.72;;;4.70;99.90;;;;;;5075422;28;20051;-79
2022/12/15 04:09:36;;;;;;;55.83;28.15;;;4.70;99.90;;;;;;5075328;28;20047;-78
2022/12/15 04:12:05;;;;;;;56.55;28.55;;;4.70;99.90;;;;;;5074956;28;20371;-78
2022/12/15 04:14:30;;;;;;;57.65;29.33;;;4.70;99.90;;;;;;5074032;28;20027;-79
2022/12/15 04:16:56;;;;;;;50.40;25.08;;;4.70;99.90;;;;;;5074788;28;20119;-79
2022/12/15 04:22:06;;;;;;;61.90;29.88;;;4.60;99.90;;;;;;5075003;28;20428;-80
2022/12/15 05:33:07;;;;;;;122.50;62.08;;;4.30;99.90;;;;;;5074410;28;20075;-76
2022/12/15 05:35:33;;;;;;;91.80;40.30;;;4.20;99.90;;;;;;5073323;28;20020;-76
2022/12/15 05:37:59;;;;;;;104.57;51.10;;;4.30;99.90;;;;;;5073761;28;20078;-76
2022/12/15 05:40:24;;;;;;;101.88;39.28;;;4.30;99.90;;;;;;5072789;28;20047;-76
2022/12/15 05:42:50;;;;;;;121.15;44.47;;;4.20;99.90;;;;;;5073394;28;20021;-76
2022/12/15 05:45:16;;;;;;;144.77;49.22;;;4.20;99.90;;;;;;5073513;28;20061;-76
2022/12/15 05:47:41;;;;;;;158.68;53.65;;;4.20;99.90;;;;;;5067470;28;20031;-78
2022/12/15 05:50:07;;;;;;;151.80;51.95;;;4.20;99.90;;;;;;5072371;28;20051;-77
2022/12/15 05:52:33;;;;;;;168.88;49.80;;;4.20;99.90;;;;;;5072046;28;20126;-76
2022/12/15 05:54:59;;;;;;;155.75;51.83;;;4.20;99.90;;;;;;5070794;28;20411;-78
2022/12/15 05:57:25;;;;;;;159.18;49.67;;;4.30;99.90;;;;;;5071833;28;20371;-76
2022/12/15 05:59:50;;;;;;;155.57;51.08;;;4.20;99.90;;;;;;5072697;28;20095;-76
2022/12/15 06:02:16;;;;;;;155.82;53.30;;;4.20;99.90;;;;;;5073583;28;20063;-77
2022/12/15 06:04:42;;;;;;;179.88;61.45;;;4.20;99.90;;;;;;5073377;28;20028;-79
2022/12/15 06:07:08;;;;;;;164.55;51.53;;;4.20;99.90;;;;;;5073651;28;20025;-78
2022/12/15 06:09:33;;;;;;;188.02;61.53;;;4.20;99.90;;;;;;5072656;28;20024;-77
2022/12/15 06:11:59;;;;;;;175.15;53.58;;;4.20;99.90;;;;;;5072160;28;20378;-78
2022/12/15 06:14:25;;;;;;;192.02;54.83;;;4.20;99.90;;;;;;5073356;28;20028;-79
2022/12/15 06:16:50;;;;;;;209.80;60.28;;;4.20;99.90;;;;;;5072486;28;20044;-78
2022/12/15 06:19:18;;;;;;;186.75;66.40;;;4.30;99.90;;;;;;5072973;28;20144;-78
2022/12/15 06:21:44;;;;;;;217.40;69.57;;;4.40;99.90;;;;;;5072985;28;20082;-78
2022/12/15 06:24:10;;;;;;;216.60;68.07;;;4.40;99.90;;;;;;5073074;28;20021;-77
2022/12/15 06:26:37;;;;;;;231.07;69.78;;;4.30;99.90;;;;;;5071800;28;20073;-78
2022/12/15 06:29:07;;;;;;;213.82;65.32;;;4.30;99.90;;;;;;5073190;28;20463;-79
2022/12/15 06:31:33;;;;;;;194.60;64.60;;;4.30;99.90;;;;;;5072587;28;20024;-79
2022/12/15 06:34:03;;;;;;;225.30;66.07;;;4.30;99.90;;;;;;5072581;28;20016;-79
2022/12/15 06:36:29;;;;;;;211.38;65.97;;;4.30;99.90;;;;;;5072080;28;20044;-79
2022/12/15 06:38:59;;;;;;;187.23;64.80;;;4.30;99.90;;;;;;5072007;28;20029;-78
2022/12/15 06:41:25;;;;;;;191.98;66.10;;;4.20;99.90;;;;;;5073974;28;20058;-78
2022/12/15 06:43:54;;;;;;;206.48;65.85;;;4.30;99.90;;;;;;5073563;28;20025;-77
2022/12/15 06:46:21;;;;;;;191.60;60.60;;;4.30;99.90;;;;;;5073139;28;20024;-79
2022/12/15 06:48:47;;;;;;;179.00;56.47;;;4.30;99.90;;;;;;5071839;28;20178;-78
2022/12/15 06:51:14;;;;;;;188.07;68.90;;;4.20;99.90;;;;;;5072787;28;20013;-78
2022/12/15 06:53:41;;;;;;;253.70;84.32;;;4.20;99.90;;;;;;5073300;28;20017;-78
2022/12/15 06:56:15;;;;;;;192.30;70.07;;;4.30;99.90;;;;;;5072101;28;20028;-79
2022/12/15 06:58:41;;;;;;;224.93;80.20;;;4.30;99.90;;;;;;5073264;28;20174;-77
2022/12/15 07:01:08;;;;;;;206.55;79.20;;;4.30;99.90;;;;;;5073460;28;20095;-79
2022/12/15 07:03:34;;;;;;;214.68;81.78;;;4.40;99.90;;;;;;5073041;28;20454;-79
2022/12/15 07:06:05;;;;;;;238.60;89.88;;;4.40;99.90;;;;;;5071935;28;20024;-78
2022/12/15 07:08:31;;;;;;;222.73;89.25;;;4.40;99.90;;;;;;5073682;28;20161;-79
2022/12/15 07:10:57;;;;;;;237.82;91.97;;;4.40;99.90;;;;;;5073267;28;20028;-78
2022/12/15 07:13:23;;;;;;;232.57;99.80;;;4.40;99.90;;;;;;5073390;28;20371;-79
2022/12/15 07:15:49;;;;;;;236.77;88.88;;;4.50;99.90;;;;;;5073354;28;20028;-78
2022/12/15 07:18:16;;;;;;;229.85;93.45;;;4.50;99.90;;;;;;5072710;28;20032;-78
2022/12/15 07:20:42;;;;;;;145.10;54.08;;;4.50;99.90;;;;;;5073535;28;20078;-77
2022/12/15 07:23:08;;;;;;;141.00;51.22;;;4.60;99.90;;;;;;5075735;28;20021;-79
2022/12/15 07:25:40;;;;;;;135.43;45.88;;;4.50;99.90;;;;;;5076847;28;20017;-77
2022/12/15 07:28:06;;;;;;;139.27;45.80;;;4.50;99.90;;;;;;5076401;28;20032;-77
2022/12/15 07:30:35;;;;;;;147.57;47.40;;;4.60;99.90;;;;;;5077007;28;20027;-79
2022/12/15 07:33:01;;;;;;;155.80;51.22;;;4.60;99.90;;;;;;5076793;28;20028;-80
2022/12/15 07:35:26;;;;;;;146.20;49.38;;;4.50;99.90;;;;;;5076815;28;20233;-79
2022/12/15 07:37:52;;;;;;;138.15;49.80;;;4.50;99.90;;;;;;5076304;28;20032;-79
2022/12/15 07:40:18;;;;;;;151.50;52.70;;;4.50;99.90;;;;;;5076794;28;20024;-79
2022/12/15 07:42:44;;;;;;;160.40;52.28;;;4.60;99.90;;;;;;5076454;28;20025;-77
2022/12/15 07:45:10;;;;;;;169.45;50.67;;;4.50;99.90;;;;;;5076154;28;20041;-78
2022/12/15 07:47:36;;;;;;;162.80;58.28;;;4.50;99.90;;;;;;5076475;28;20051;-80
2022/12/15 07:50:03;;;;;;;179.50;64.47;;;4.60;99.90;;;;;;5076784;28;20436;-79
2022/12/15 07:52:30;;;;;;;188.02;59.03;;;4.50;99.90;;;;;;5076037;28;20017;-79
2022/12/15 07:54:55;;;;;;;512.63;273.08;;;4.50;99.90;;;;;;5076176;28;20444;-79
2022/12/15 07:57:22;;;;;;;361.35;159.43;;;4.50;99.90;;;;;;5076430;28;20090;-78
2022/12/15 07:59:48;;;;;;;209.60;72.50;;;4.60;99.90;;;;;;5076064;28;20078;-79
2022/12/15 08:02:14;;;;;;;201.55;75.70;;;4.60;99.90;;;;;;5074808;28;20409;-77
2022/12/15 08:04:40;;;;;;;235.02;89.95;;;4.70;99.90;;;;;;5074985;28;20021;-79
2022/12/15 08:07:06;;;;;;;257.85;107.00;;;4.70;99.90;;;;;;5076098;28;20043;-78
2022/12/15 08:09:32;;;;;;;204.25;70.32;;;4.80;99.90;;;;;;5075934;28;20147;-78
2022/12/15 08:11:58;;;;;;;223.57;82.43;;;4.70;99.90;;;;;;5075997;28;20474;-79
2022/12/15 08:14:23;;;;;;;226.93;66.70;;;4.70;99.90;;;;;;5075668;28;20381;-78
2022/12/15 08:16:49;;;;;;;320.95;128.35;;;4.70;99.90;;;;;;5075559;28;20086;-79
2022/12/15 08:19:16;;;;;;;579.47;349.08;;;4.70;99.90;;;;;;5075869;28;20103;-79
2022/12/15 08:21:47;;;;;;;290.17;88.35;;;4.70;99.90;;;;;;5075885;28;20021;-80
2022/12/15 08:24:14;;;;;;;277.42;82.07;;;4.70;99.90;;;;;;5074433;28;20048;-79
2022/12/15 08:26:43;;;;;;;257.00;78.90;;;4.80;99.90;;;;;;5075711;28;20024;-79
2022/12/15 08:29:13;;;;;;;921.92;620.50;;;4.80;99.90;;;;;;5075729;28;20028;-79
2022/12/15 08:31:39;;;;;;;261.92;89.03;;;4.80;99.90;;;;;;5075309;28;20051;-79
2022/12/15 08:34:05;;;;;;;213.50;62.13;;;4.80;99.90;;;;;;5075239;28;20056;-79
2022/12/15 08:36:31;;;;;;;228.07;58.75;;;4.70;99.90;;;;;;5075427;28;20025;-77
2022/12/15 08:38:59;;;;;;;187.25;56.42;;;4.80;99.90;;;;;;5074126;28;20040;-77
2022/12/15 08:41:29;;;;;;;199.50;46.20;;;4.80;99.90;;;;;;5075697;28;20027;-78
2022/12/15 08:43:57;;;;;;;210.45;53.60;;;4.80;99.90;;;;;;5075252;28;20016;-78
2022/12/15 08:46:34;;;;;;;398.85;137.75;;;4.80;99.90;;;;;;5075383;28;20036;-77
2022/12/15 08:49:01;;;;;;;218.68;55.40;;;4.80;99.90;;;;;;5075314;28;20025;-79
2022/12/15 08:51:28;;;;;;;243.73;93.90;;;4.80;99.90;;;;;;5073779;28;20021;-77
2022/12/15 08:53:55;;;;;;;187.95;51.45;;;4.80;99.90;;;;;;5075239;28;20105;-77
2022/12/15 08:56:23;;;;;;;267.20;71.80;;;4.90;99.90;;;;;;5073916;28;20021;-79
2022/12/15 08:58:53;;;;;;;268.63;68.00;;;4.90;99.90;;;;;;5074381;28;20028;-78
2022/12/15 09:01:22;;;;;;;230.23;65.47;;;4.90;99.90;;;;;;5075325;28;20024;-79
2022/12/15 09:03:48;;;;;;;237.00;63.38;;;4.90;99.90;;;;;;5073674;28;20036;-78
2022/12/15 09:06:17;;;;;;;238.35;57.63;;;4.90;99.90;;;;;;5073569;28;20062;-80
2022/12/15 09:08:43;;;;;;;249.15;55.10;;;4.90;99.90;;;;;;5074862;28;20027;-78
2022/12/15 09:11:09;;;;;;;185.45;49.88;;;4.90;99.90;;;;;;5074854;28;20025;-79
2022/12/15 09:13:35;;;;;;;198.27;48.92;;;4.90;99.90;;;;;;5073426;28;20025;-79
2022/12/15 09:16:14;;;;;;;289.27;99.50;;;5.00;99.90;;;;;;5074745;28;20029;-79
2022/12/15 09:18:46;;;;;;;238.00;74.35;;;4.90;99.90;;;;;;5073149;28;20040;-79
2022/12/15 09:21:13;;;;;;;;;;;5.00;99.90;;;;;;5075343;28;20033;-79
2022/12/15 09:23:39;;;;;;;311.90;83.97;;;5.00;99.90;;;;;;5072841;28;19900;-78
2022/12/15 09:26:14;;;;;;;273.73;66.43;;;5.00;99.90;;;;;;5073478;28;20024;-76
2022/12/15 09:28:41;;;;;;;307.98;86.30;;;5.00;99.90;;;;;;5073936;28;20036;-77
2022/12/15 09:31:17;;;;;;;332.00;102.60;;;5.00;99.90;;;;;;5071910;28;20029;-76
2022/12/15 09:33:43;;;;;;;286.83;73.05;;;5.10;99.90;;;;;;5072724;28;20056;-77
2022/12/15 09:36:11;;;;;;;450.52;245.10;;;5.00;99.90;;;;;;5073651;28;20044;-78
2022/12/15 09:38:39;;;;;;;310.08;116.40;;;5.10;99.90;;;;;;5072701;28;20060;-77
2022/12/15 09:41:08;;;;;;;224.73;68.80;;;5.20;99.90;;;;;;5073751;28;20482;-76
2022/12/15 09:43:36;;;;;;;244.45;78.13;;;5.20;99.90;;;;;;5072393;28;20021;-77
2022/12/15 09:46:11;;;;;;;268.40;109.22;;;5.30;99.90;;;;;;5072998;28;20021;-78
2022/12/15 09:48:40;;;;;;;248.93;75.80;;;5.30;99.90;;;;;;5074087;28;20025;-78
2022/12/15 09:51:11;;;;;;;271.02;86.70;;;5.30;99.90;;;;;;5073762;28;20021;-78
2022/12/15 09:53:37;;;;;;;231.00;73.70;;;5.30;99.90;;;;;;5074069;28;20019;-78
2022/12/15 09:56:12;;;;;;;178.52;61.13;;;5.40;99.90;;;;;;5074187;28;20021;-77
2022/12/15 09:59:01;;;;;;;188.25;62.53;;;5.40;99.90;;;;;;5074073;28;20078;-77
2022/12/15 10:01:46;;;;;;;175.88;57.65;;;5.40;99.90;;;;;;5073689;28;20016;-78
2022/12/15 10:04:23;;;;;;;206.88;65.68;;;5.40;99.90;;;;;;5072775;28;20020;-76
2022/12/15 10:06:58;;;;;;;207.25;60.95;;;5.50;99.90;;;;;;5073616;28;20025;-78
2022/12/15 10:09:27;;;;;;;216.25;62.10;;;5.50;99.90;;;;;;5073877;28;20020;-78
2022/12/15 10:12:01;;;;;;;207.38;59.35;;;5.50;99.90;;;;;;5073801;28;20024;-78
2022/12/15 10:14:40;;;;;;;229.05;58.15;;;5.50;99.90;;;;;;5073812;28;20094;-79
2022/12/15 10:17:40;;;;;;;203.23;57.85;;;5.40;99.90;;;;;;5072406;28;20067;-76
2022/12/15 10:20:17;;;;;;;193.40;54.88;;;5.50;99.90;;;;;;5074078;28;20028;-76
2022/12/15 10:22:43;;;;;;;236.88;74.78;;;5.50;99.90;;;;;;5073786;28;20059;-77
2022/12/15 10:25:31;;;;;;;276.38;108.82;;;5.50;99.90;;;;;;5073475;28;20024;-78
2022/12/15 10:28:14;;;;;;;191.48;62.35;;;5.50;99.90;;;;;;5073839;28;20025;-78
2022/12/15 10:30:50;;;;;;;152.40;48.58;;;5.50;99.90;;;;;;5073334;28;20039;-77
2022/12/15 10:33:34;;;;;;;198.82;67.43;;;5.60;99.90;;;;;;5072400;28;20112;-77
2022/12/15 10:36:00;;;;;;;186.70;65.13;;;5.70;99.90;;;;;;5073831;28;20024;-77
2022/12/15 10:38:41;;;;;;;213.07;68.47;;;5.70;99.90;;;;;;5073754;28;20028;-79
2022/12/15 10:41:13;;;;;;;209.23;67.63;;;5.70;99.90;;;;;;5073611;28;20016;-79
2022/12/15 10:43:46;;;;;;;267.17;99.75;;;5.80;99.90;;;;;;5072188;28;20020;-78
2022/12/15 10:46:18;;;;;;;230.80;71.97;;;5.80;99.90;;;;;;5073941;28;20051;-77
2022/12/15 10:49:07;;;;;;;228.52;73.65;;;5.70;99.90;;;;;;5073529;28;20037;-77
2022/12/15 10:51:57;;;;;;;239.95;80.15;;;5.80;99.90;;;;;;5073155;28;20028;-77
2022/12/15 10:54:26;;;;;;;234.38;80.55;;;5.70;99.90;;;;;;5067927;28;20116;-78
2022/12/15 10:56:55;;;;;;;251.50;80.30;;;5.80;99.90;;;;;;5076993;28;20023;-78
2022/12/15 10:59:32;;;;;;;236.60;77.60;;;5.80;99.90;;;;;;5077359;28;20070;-78
2022/12/15 11:02:23;;;;;;;273.55;96.78;;;5.70;99.90;;;;;;5075893;28;20078;-78
2022/12/15 11:05:02;;;;;;;279.70;100.38;;;5.70;99.90;;;;;;5077234;28;20021;-78
2022/12/15 11:07:40;;;;;;;271.20;92.70;;;5.70;99.90;;;;;;5075937;28;20024;-79
2022/12/15 11:13:21;;;;;;;262.23;96.95;;;5.60;99.90;;;;;;5077131;28;20425;-78
2022/12/15 11:15:50;;;;;;;415.15;197.98;;;5.70;99.90;;;;;;5077411;28;20017;-79
2022/12/15 11:18:41;;;;;;;282.63;100.05;;;5.80;99.90;;;;;;5076910;28;20040;-79
2022/12/15 11:21:15;;;;;;;271.90;96.70;;;5.80;99.90;;;;;;5077195;28;20095;-77
2022/12/15 11:24:10;;;;;;;297.55;102.97;;;5.90;99.90;;;;;;5075441;28;20471;-79
2022/12/15 11:26:59;;;;;;;290.30;97.70;;;5.90;99.90;;;;;;5059458;28;20042;-78
2022/12/15 11:29:58;;;;;;;312.98;109.57;;;5.90;99.90;;;;;;5064697;28;20428;-78
2022/12/15 11:32:28;;;;;;;305.15;110.88;;;5.90;99.90;;;;;;5076895;28;20363;-80
2022/12/15 11:34:54;;;;;;;245.23;73.57;;;6.00;99.90;;;;;;5077022;28;20069;-78
2022/12/15 11:37:34;;;;;;;222.50;75.22;;;6.00;99.90;;;;;;5076629;28;20451;-79
2022/12/15 11:40:26;;;;;;;258.63;91.85;;;5.90;99.90;;;;;;5076408;28;20029;-78
2022/12/15 11:43:00;;;;;;;313.57;129.40;;;6.00;99.90;;;;;;5075606;28;20016;-78
2022/12/15 11:46:03;;;;;;;267.45;91.38;;;6.10;99.90;;;;;;5076927;28;20463;-79
2022/12/15 11:48:58;;;;;;;289.80;101.60;;;6.10;99.90;;;;;;5076811;28;20074;-80
2022/12/15 11:51:29;;;;;;;300.08;120.63;;;6.00;99.90;;;;;;5046795;28;20037;-78
2022/12/15 11:54:34;;;;;;;289.67;113.65;;;6.00;99.90;;;;;;5076109;28;20020;-80
2022/12/15 11:57:37;;;;;;;328.08;127.47;;;6.00;99.90;;;;;;5075436;28;20040;-79
2022/12/15 12:00:12;;;;;;;;;;;6.10;99.90;;;;;;5075372;28;20035;-79
2022/12/15 12:03:12;;;;;;;313.20;110.72;;;6.00;99.90;;;;;;5076208;28;20389;-77
2022/12/15 12:05:53;;;;;;;311.50;116.32;;;6.10;99.90;;;;;;5076397;28;20021;-79
2022/12/15 12:08:19;;;;;;;275.00;94.30;;;6.00;99.90;;;;;;5074270;28;20126;-77
2022/12/15 12:11:11;;;;;;;246.23;86.35;;;6.00;99.90;;;;;;5076590;28;20028;-78
2022/12/15 12:14:06;;;;;;;229.82;78.45;;;6.00;99.90;;;;;;5072329;28;20094;-78
2022/12/15 12:16:55;;;;;;;337.95;147.93;;;5.90;99.90;;;;;;5044516;28;20451;-79
2022/12/15 12:19:38;;;;;;;284.77;101.53;;;6.00;99.90;;;;;;5074882;28;20028;-79
2022/12/15 12:22:26;;;;;;;284.60;97.03;;;6.10;99.90;;;;;;5074785;28;20055;-79
2022/12/15 12:25:05;;;;;;;286.55;101.18;;;6.00;99.90;;;;;;5075978;28;20447;-79
2022/12/15 12:28:04;;;;;;;281.10;95.05;;;6.00;99.90;;;;;;5075872;28;20020;-78
2022/12/15 12:30:43;;;;;;;302.25;98.88;;;6.00;99.90;;;;;;5061142;28;20033;-79
2022/12/15 12:33:19;;;;;;;293.60;94.40;;;5.80;99.90;;;;;;5075753;28;20025;-79
2022/12/15 12:35:57;;;;;;;306.55;101.45;;;5.80;99.90;;;;;;5075456;28;20336;-78
2022/12/15 12:38:35;;;;;;;313.65;108.57;;;5.90;99.90;;;;;;5074711;28;20029;-80
2022/12/15 12:41:19;;;;;;;334.70;114.07;;;5.90;99.90;;;;;;5075483;28;20029;-78
2022/12/15 12:43:51;;;;;;;347.83;117.80;;;6.00;99.90;;;;;;5074166;28;20026;-78
2022/12/15 12:46:39;;;;;;;440.30;173.10;;;6.10;99.90;;;;;;5075895;28;20012;-79
2022/12/15 12:49:27;;;;;;;414.67;150.35;;;6.20;99.90;;;;;;5075529;28;20032;-79
2022/12/15 12:52:00;;;;;;;396.35;134.35;;;6.10;99.90;;;;;;5075884;28;20017;-78
2022/12/15 12:54:52;;;;;;;448.83;171.90;;;6.10;99.90;;;;;;5074279;28;20111;-80
2022/12/15 12:57:36;;;;;;;369.23;130.23;;;6.10;99.90;;;;;;5075598;28;20514;-79
2022/12/15 13:00:07;;;;;;;385.35;127.93;;;6.10;99.90;;;;;;5073928;28;20059;-78
2022/12/15 13:02:39;;;;;;;401.75;129.38;;;6.10;99.90;;;;;;5074965;28;20017;-79
2022/12/15 13:05:23;;;;;;;394.63;130.75;;;6.10;99.90;;;;;;5075141;28;20486;-78
2022/12/15 13:07:55;;;;;;;438.20;144.75;;;6.10;99.90;;;;;;5075280;28;20463;-78
2022/12/15 13:10:23;;;;;;;450.55;159.60;;;6.10;99.90;;;;;;5073896;28;20345;-78
2022/12/15 13:13:14;;;;;;;398.27;130.02;;;6.20;99.90;;;;;;5075072;28;20052;-80
2022/12/15 13:15:43;;;;;;;362.98;122.00;;;6.20;99.90;;;;;;5074817;28;20406;-78
2022/12/15 13:18:24;;;;;;;369.63;121.32;;;6.20;99.90;;;;;;5073785;28;20113;-80
2022/12/15 13:20:54;;;;;;;365.92;118.10;;;6.30;99.90;;;;;;5075333;28;20074;-79
2022/12/15 13:23:22;;;;;;;361.25;115.75;;;6.30;99.90;;;;;;5073669;28;20047;-80
2022/12/15 13:25:51;;;;;;;486.90;182.57;;;6.30;99.90;;;;;;5074816;28;20051;-80
2022/12/15 13:28:26;;;;;;;433.35;146.77;;;6.30;99.90;;;;;;5074627;28;20036;-79
2022/12/15 13:31:19;;;;;;;381.85;127.35;;;6.30;99.90;;;;;;5073963;28;20363;-79
2022/12/15 13:33:51;;;;;;;404.42;143.30;;;6.20;99.90;;;;;;5075111;28;20074;-80
2022/12/15 13:36:35;;;;;;;414.17;142.00;;;6.30;99.90;;;;;;5075016;28;20016;-79
2022/12/15 13:39:13;;;;;;;377.20;127.20;;;6.30;99.90;;;;;;5074088;28;20111;-79
2022/12/15 13:41:45;;;;;;;398.63;127.05;;;6.30;99.90;;;;;;5073407;28;20090;-80
2022/12/15 13:44:23;;;;;;;409.92;146.15;;;6.20;99.90;;;;;;5074376;28;20028;-80
2022/12/15 13:46:52;;;;;;;392.10;134.35;;;6.20;99.90;;;;;;5073519;28;20040;-80
2022/12/15 13:49:30;;;;;;;406.77;134.15;;;6.20;99.90;;;;;;5065744;28;20119;-78
2022/12/15 13:52:24;;;;;;;406.42;133.23;;;6.20;99.90;;;;;;5063963;28;20044;-79
2022/12/15 13:55:02;;;;;;;374.35;125.70;;;6.20;99.90;;;;;;5063368;28;20027;-81
2022/12/15 13:57:38;;;;;;;379.73;121.93;;;6.20;99.90;;;;;;5081468;28;20016;-78
2022/12/15 14:00:18;;;;;;;357.83;114.45;;;6.10;99.90;;;;;;5094432;28;20024;-80
2022/12/15 14:02:44;;;;;;;400.77;128.55;;;6.00;99.90;;;;;;5053034;28;20418;-78
2022/12/15 14:05:22;;;;;;;387.23;126.25;;;6.00;99.90;;;;;;5064568;28;20039;-80
2022/12/15 14:07:59;;;;;;;346.58;110.43;;;6.10;99.90;;;;;;5075091;28;20025;-79
2022/12/15 14:10:43;;;;;;;419.95;135.35;;;6.00;99.90;;;;;;5091834;28;20099;-80
2022/12/15 14:13:25;;;;;;;398.88;127.00;;;6.00;99.90;;;;;;5078600;28;20021;-79
2022/12/15 14:15:54;;;;;;;389.35;117.82;;;5.90;99.90;;;;;;5071932;28;20028;-78
2022/12/15 14:18:27;;;;;;;459.40;142.65;;;5.90;99.90;;;;;;5076687;28;20033;-80
2022/12/15 14:20:54;;;;;;;459.95;149.63;;;5.90;99.90;;;;;;5071468;28;20112;-79
2022/12/15 14:23:29;;;;;;;423.80;133.13;;;5.90;99.90;;;;;;5072199;28;20355;-79
2022/12/15 14:26:05;;;;;;;344.25;104.38;;;5.90;99.90;;;;;;5071633;28;20021;-79
2022/12/15 14:28:34;;;;;;;340.20;95.43;;;5.80;99.90;;;;;;5073769;28;20017;-80
2022/12/15 14:31:16;;;;;;;364.45;100.45;;;5.80;99.90;;;;;;5083622;28;20020;-79
2022/12/15 14:33:45;;;;;;;353.85;115.75;;;5.80;99.90;;;;;;5072612;28;20028;-81
2022/12/15 14:36:13;;;;;;;389.08;125.15;;;5.80;99.90;;;;;;5088964;28;20020;-79
2022/12/15 14:39:22;;;;;;;375.05;118.72;;;5.80;99.90;;;;;;5075350;28;20020;-81
2022/12/15 14:41:50;;;;;;;369.48;118.88;;;5.80;99.90;;;;;;5035563;28;20033;-80
2022/12/15 14:44:35;;;;;;;526.78;194.30;;;5.80;99.90;;;;;;5070944;28;20024;-80
2022/12/15 14:47:04;;;;;;;363.00;101.40;;;5.80;99.90;;;;;;5051477;28;20029;-78
2022/12/15 14:49:39;;;;;;;347.92;95.93;;;5.70;99.90;;;;;;5063058;28;20405;-81
2022/12/15 14:52:21;;;;;;;387.42;109.13;;;5.70;99.90;;;;;;5072470;28;20027;-80
2022/12/15 14:54:56;;;;;;;416.90;100.10;;;5.70;99.90;;;;;;5071146;28;20016;-78
2022/12/15 14:57:26;;;;;;;387.30;103.90;;;5.70;99.90;;;;;;5093492;28;20375;-78
2022/12/15 14:59:52;;;;;;;453.67;109.90;;;5.70;99.90;;;;;;5074791;28;20444;-80
2022/12/15 15:02:23;;;;;;;513.72;139.07;;;5.60;99.90;;;;;;5073907;28;20031;-80
2022/12/15 15:05:02;;;;;;;393.73;103.57;;;5.60;99.90;;;;;;5072739;28;20017;-80
2022/12/15 15:07:33;;;;;;;438.83;115.07;;;5.60;99.90;;;;;;5072464;28;20254;-78
2022/12/15 15:10:00;;;;;;;533.85;146.38;;;5.60;99.90;;;;;;5072583;28;20036;-80
2022/12/15 15:12:47;;;;;;;490.25;122.50;;;5.60;99.90;;;;;;5076097;28;20050;-79
2022/12/15 15:15:19;;;;;;;511.75;131.73;;;5.60;99.90;;;;;;5092729;28;20505;-79
2022/12/15 15:17:53;;;;;;;525.42;135.00;;;5.60;99.90;;;;;;5092111;28;20040;-78
2022/12/15 15:20:30;;;;;;;428.48;117.45;;;5.60;99.90;;;;;;5093058;28;20028;-80
2022/12/15 15:23:10;;;;;;;366.17;99.78;;;5.60;99.90;;;;;;5092455;28;20020;-80